Port Edwards, WI

6:11 PM CST on November 21, 2014 (GMT -0600)
Alexander Field South Wood County | Change Station
CLOSE
Current Station
Airport
Location: Wisconsin Rapids,
Elevation: 1020 ft
Nearby Weather Stations
Active Advisory: Special Statement Active Notice: Record Report

Elev 1020 ft 44.36 °N, 89.84 °W | Updated 17 minutes ago

Partly Cloudy
Partly Cloudy
26 °F
Feels Like 16 °F
N
12
Wind Variable Wind from South

Today
High -- | Low -- °F
--% Chance of Precip.
Yesterday
High -- | Low -- °F
Precip. -- in
7:03 AM 4:26 PM
Waning Crescent, 0% visible
Pressure 30.21 in
Visibility 10.0 miles
Clouds Clear
Windchill 16 °F
Dew Point 5 °F
Humidity 41%
Rainfall 0.00 in
Snow Depth Not available.
UV 0 out of 12
Pollen .10 out of 12
Air Quality Not available.
Flu Activity Not available.
METAR KISW 212354Z AUTO 19010KT 10SM CLR M03/M15 A3014 RMK AO2 SLP229 T10331150 11022 21056 58017 $

More Conditions Fewer Conditions

Pressure 30.21 in
Visibility 10.0 miles
Clouds Clear
Windchill 16 °F
Dew Point 5 °F
Humidity 41%
Rainfall 0.00 in
Snow Depth Not available.
UV 0 out of 12
Pollen .10 out of 12
Air Quality Not available.
Flu Activity Not available.
METAR KISW 212354Z AUTO 19010KT 10SM CLR M03/M15 A3014 RMK AO2 SLP229 T10331150 11022 21056 58017 $

More Conditions Fewer Conditions

10-Day Weather Forecast

Almanac

Astronomy

Nov. 21, 2014 Rise Set
Actual Time
Civil Twilight
Nautical Twilight
Astronomical Twilight
Moon
Length of Visible Light
Length of Day
Tomorrow will be .
, % of the Moon is Illuminated

Today's Extremes

State Highs State Lows

Community

WunderPhotos

Upload Photos

1,772,744 photos uploaded!

WunderBlogs® & News

Nearby

Air Quality

  Air Quality AQ Index Pollutant
Not available.

Snow Depth

Station Depth Elevation

Earthquake Activity

City Distance Mag. Time & Date
Minimum magnitude displayed is 2.5.

Coastal Water Temperatures

Place Temperature

Nearby Weather Stations